Terminal Aerodrome Forecast
Issued by NWS

Home | Current Version | Previous Version | Text Only | Print | Product List | Glossary On
Versions: 1 2 3 4 5 6 7 8 9 10 11 12 13 14 15 16 17 18 19 20 21 22 23 24 25 26 27 28
000
FTAK31 PAFA 271737
TAFAOR
TAF
PAOR 271737Z 2718/2818 30006KT 3SM -RA BR SCT025 BKN035
     FM272100 31012G20KT 6SM -RA BR SCT025 OVC035
     FM280200 31016G28KT P6SM VCSH OVC050
     FM280900 31012KT P6SM VCSH OVC050=

USA.gov is the U.S. government's official web portal to all federal, state and local government web resources and services.